UHSS

Yuzhno-Sakhalinsk Airport

Yuzhno-Sakhalinsk, Russian Federation
TAF AMD UHSS 240425Z 2404/2509 17008MPS 9999 BKN020CB TEMPO 2403/2412 5000 -SHRA BR BKN020CB BECMG 2411/2413 23003MPS
Issued Valid From Valid To
Oct-24 @ 04:25 UTC
(37 minutes ago)
Oct-24 @ 04:00 UTC
(an hour ago)
Oct-25 @ 09:00 UTC
(-1 days ago)
Oct-24 @ 04:00 to Oct-24 @ 11:00
TAF AMD UHSS 240425Z 2404/2509 17008MPS 9999 BKN020CB
Wind Visibility Clouds
170° at 16 knots 10,000+ meters
  • Broken at 2,000' AGL
Temporary Oct-24 @ 03:00 to Oct-24 @ 12:00
TEMPO 2403/2412 5000 -SHRA BR BKN020CB
Visibility Clouds Conditions
5,005 meters
  • Broken at 2,000' AGL
  • Light Rain
  • Mist
Becoming Oct-24 @ 11:00 to Oct-25 @ 09:00
BECMG 2411/2413 23003MPS
Wind Visibility Clouds
230° at 6 knots 10,000+ meters
  • Broken at 2,000' AGL
TAF AMD UHSS 240425Z 2404/2509 17008MPS 9999 BKN020CB TEMPO 2403/2412 5000 -SHRA BR BKN020CB BECMG 2411/2413 23003MPS
Issued Oct-24 @ 04:25 UTC
(37 minutes ago)
Valid From Oct-24 @ 04:00 UTC
(an hour ago)
Valid To Oct-25 @ 09:00 UTC
(-1 days ago)
Oct-24 @ 04:00 - Oct-24 @ 11:00
Wind Visibility
170° at 16 knots 10,000+ meters
Clouds
  • Broken at 2,000' AGL
Temporary Oct-24 @ 03:00 - Oct-24 @ 12:00
Clouds
  • Broken at 2,000' AGL
Conditions
  • Light Rain
  • Mist
Becoming Oct-24 @ 11:00 - Oct-25 @ 09:00
Wind Visibility
230° at 6 knots 10,000+ meters
Clouds
  • Broken at 2,000' AGL